createdAt,value
2023-01-27T00:01:18.415Z,16.10
2023-01-27T00:16:28.234Z,15.40
2023-01-27T00:18:56.126Z,16.20
2023-01-27T00:24:30.694Z,15.60
2023-01-27T00:32:15.144Z,15.60
2023-01-27T00:47:06.951Z,15.70
2023-01-27T01:04:26.764Z,15.60
2023-01-27T01:21:46.884Z,16.10
2023-01-27T01:44:20.156Z,14.90
2023-01-27T01:49:19.047Z,15.50
2023-01-27T01:51:49.932Z,15.40
2023-01-27T01:54:22.809Z,15.30
2023-01-27T01:56:54.455Z,15.70
2023-01-27T01:59:26.770Z,15.20
2023-01-27T02:01:58.295Z,15.60
2023-01-27T02:04:31.722Z,15.50
2023-01-27T02:07:06.254Z,14.90
2023-01-27T02:09:36.260Z,15.50
2023-01-27T02:12:05.492Z,16.00
2023-01-27T02:14:34.515Z,14.70
2023-01-27T02:17:04.231Z,15.10
2023-01-27T02:19:45.733Z,15.80
2023-01-27T02:22:29.290Z,15.30
2023-01-27T02:28:55.208Z,15.60
2023-01-27T02:33:53.495Z,15.20
2023-01-27T02:38:53.870Z,15.20
2023-01-27T02:41:26.832Z,15.30
2023-01-27T02:43:56.860Z,15.20
2023-01-27T02:46:24.905Z,15.60
2023-01-27T02:51:21.426Z,15.50
2023-01-27T02:53:49.540Z,15.20
2023-01-27T03:01:16.340Z,15.50
2023-01-27T03:18:57.502Z,15.50
2023-01-27T03:34:08.880Z,15.40
2023-01-27T03:50:19.447Z,15.40
2023-01-27T03:55:32.127Z,15.80
2023-01-27T04:14:07.511Z,15.60
2023-01-27T04:16:36.758Z,15.30
2023-01-27T04:19:05.875Z,15.30
2023-01-27T04:21:35.859Z,15.30
2023-01-27T04:38:59.009Z,15.70
2023-01-27T04:56:25.053Z,15.40
2023-01-27T05:13:45.766Z,15.20
2023-01-27T05:16:15.341Z,15.50
2023-01-27T05:18:44.657Z,16.40
2023-01-27T05:21:15.131Z,15.80
2023-01-27T05:26:14.271Z,16.00
2023-01-27T05:28:45.996Z,15.50
2023-01-27T05:31:16.390Z,15.60
2023-01-27T05:36:15.004Z,16.30
2023-01-27T05:41:13.003Z,16.30
2023-01-27T05:43:42.801Z,16.00
2023-01-27T05:46:14.109Z,15.90
2023-01-27T05:48:44.118Z,16.20
2023-01-27T05:51:15.076Z,16.80
2023-01-27T05:56:13.734Z,16.10
2023-01-27T05:58:42.219Z,16.10
2023-01-27T06:01:13.988Z,16.00
2023-01-27T06:03:43.386Z,16.10
2023-01-27T06:06:12.611Z,16.30
2023-01-27T06:11:10.164Z,16.10
2023-01-27T06:16:09.709Z,15.80
2023-01-27T06:18:40.023Z,16.10
2023-01-27T06:21:12.031Z,16.10
2023-01-27T06:23:40.886Z,15.90
2023-01-27T06:26:11.192Z,16.00
2023-01-27T06:31:09.308Z,15.90
2023-01-27T06:33:39.348Z,15.90
2023-01-27T06:36:08.128Z,15.50
2023-01-27T06:51:03.579Z,16.10
2023-01-27T06:56:02.391Z,16.00
2023-01-27T07:08:25.717Z,16.60
2023-01-27T07:10:53.815Z,17.00
2023-01-27T07:15:56.303Z,17.20
2023-01-27T07:23:21.565Z,17.90
2023-01-27T07:25:51.004Z,18.00
2023-01-27T07:43:12.089Z,17.30
2023-01-27T07:48:10.162Z,17.50
2023-01-27T07:53:07.074Z,17.20
2023-01-27T08:00:33.887Z,17.20
2023-01-27T08:03:03.219Z,17.60
2023-01-27T08:05:34.012Z,16.90
2023-01-27T08:10:31.986Z,17.60
2023-01-27T08:15:28.486Z,17.60
2023-01-27T08:17:59.192Z,17.50
2023-01-27T08:20:28.681Z,17.10
2023-01-27T08:22:56.999Z,17.30
2023-01-27T08:27:54.776Z,17.90
2023-01-27T08:30:23.789Z,18.10
2023-01-27T08:32:51.920Z,18.20
2023-01-27T08:35:21.537Z,18.00
2023-01-27T08:37:50.224Z,17.70
2023-01-27T08:40:19.044Z,17.90
2023-01-27T08:50:13.227Z,18.60
2023-01-27T08:52:42.951Z,17.70
2023-01-27T08:55:11.108Z,17.80
2023-01-27T09:00:10.379Z,17.90
2023-01-27T09:05:07.486Z,17.90
2023-01-27T09:10:20.261Z,17.70
2023-01-27T09:20:15.057Z,18.00
2023-01-27T09:22:44.138Z,18.30
2023-01-27T09:25:17.443Z,17.90
2023-01-27T09:27:46.000Z,18.10
2023-01-27T09:30:16.441Z,17.60
2023-01-27T09:32:44.721Z,18.00
2023-01-27T09:35:13.444Z,17.80
2023-01-27T09:37:46.938Z,18.00
2023-01-27T09:40:29.215Z,17.90
2023-01-27T09:43:19.975Z,18.40
2023-01-27T09:46:20.360Z,17.80
2023-01-27T09:49:06.495Z,18.10
2023-01-27T09:51:44.867Z,18.10
2023-01-27T09:54:37.316Z,18.00
2023-01-27T09:57:15.117Z,18.20
2023-01-27T10:00:00.419Z,18.50
2023-01-27T10:02:43.189Z,18.40
2023-01-27T10:05:25.735Z,18.20
2023-01-27T10:08:17.557Z,18.50
2023-01-27T10:10:58.458Z,18.60
2023-01-27T10:13:39.265Z,18.60
2023-01-27T10:16:20.336Z,18.90
2023-01-27T10:19:02.740Z,18.50
2023-01-27T10:21:39.473Z,19.00
2023-01-27T10:24:18.367Z,19.10
2023-01-27T10:26:51.620Z,19.10
2023-01-27T10:29:26.037Z,19.20
2023-01-27T10:31:59.161Z,19.20
2023-01-27T10:34:34.138Z,19.00
2023-01-27T10:37:15.652Z,19.10
2023-01-27T10:39:50.523Z,19.00
2023-01-27T10:42:29.224Z,19.00
2023-01-27T10:45:20.080Z,18.90
2023-01-27T10:47:58.467Z,18.70
2023-01-27T10:50:30.751Z,19.00
2023-01-27T10:53:05.266Z,19.20
2023-01-27T10:55:39.403Z,19.40
2023-01-27T10:58:14.710Z,19.50
2023-01-27T11:01:18.894Z,19.60
2023-01-27T11:03:40.991Z,19.40
2023-01-27T11:06:13.611Z,19.50
2023-01-27T11:08:45.806Z,19.40
2023-01-27T11:11:32.845Z,19.40
2023-01-27T11:14:06.688Z,19.60
2023-01-27T11:16:38.607Z,19.50
2023-01-27T11:19:19.886Z,19.20
2023-01-27T11:22:06.355Z,19.50
2023-01-27T11:24:46.249Z,19.30
2023-01-27T11:27:26.589Z,19.70
2023-01-27T11:29:59.469Z,19.50
2023-01-27T11:32:40.899Z,19.50
2023-01-27T11:35:12.557Z,19.30
2023-01-27T11:37:42.165Z,19.30
2023-01-27T11:40:23.798Z,19.30
2023-01-27T11:42:52.254Z,19.30
2023-01-27T11:45:22.264Z,19.20
2023-01-27T11:47:53.836Z,19.30
2023-01-27T11:50:24.784Z,19.30
2023-01-27T11:52:59.869Z,19.30
2023-01-27T11:55:35.026Z,19.30
2023-01-27T11:58:14.849Z,19.10
2023-01-27T12:00:47.678Z,19.20
2023-01-27T12:03:21.825Z,19.40
2023-01-27T12:05:55.668Z,19.20
2023-01-27T12:08:44.750Z,19.10
2023-01-27T12:11:22.268Z,19.10
2023-01-27T12:13:52.667Z,19.00
2023-01-27T12:16:21.358Z,19.00
2023-01-27T12:18:56.411Z,19.20
2023-01-27T12:21:36.760Z,19.10
2023-01-27T12:24:06.860Z,19.30
2023-01-27T12:26:38.540Z,19.20
2023-01-27T12:29:16.033Z,19.70
2023-01-27T12:31:47.766Z,19.30
2023-01-27T12:34:26.757Z,19.30
2023-01-27T12:36:55.934Z,19.30
2023-01-27T12:39:43.779Z,19.10
2023-01-27T12:42:36.653Z,19.30
2023-01-27T12:45:23.602Z,19.30
2023-01-27T12:48:20.991Z,19.30
2023-01-27T12:51:04.623Z,19.40
2023-01-27T12:53:32.743Z,19.40
2023-01-27T12:56:05.655Z,19.40
2023-01-27T12:58:37.272Z,19.20
2023-01-27T13:01:09.139Z,19.00
2023-01-27T13:03:42.547Z,19.30
2023-01-27T13:06:17.247Z,19.50
2023-01-27T13:08:46.454Z,19.20
2023-01-27T13:11:14.608Z,19.10
2023-01-27T13:13:51.111Z,19.10
2023-01-27T13:16:26.542Z,19.40
2023-01-27T13:18:56.203Z,19.10
2023-01-27T13:21:28.811Z,19.20
2023-01-27T13:23:59.059Z,19.20
2023-01-27T13:26:30.530Z,19.10
2023-01-27T13:29:03.629Z,19.20
2023-01-27T13:31:42.969Z,19.20
2023-01-27T13:34:19.980Z,19.40
2023-01-27T13:36:56.530Z,19.20
2023-01-27T13:39:34.541Z,19.20
2023-01-27T13:42:12.502Z,19.20
2023-01-27T13:44:43.616Z,19.70
2023-01-27T13:47:19.367Z,19.30
2023-01-27T13:49:53.318Z,18.80
2023-01-27T13:52:22.875Z,19.20
2023-01-27T13:54:50.947Z,19.40
2023-01-27T13:57:37.482Z,19.30
2023-01-27T14:00:13.326Z,19.10
2023-01-27T14:02:57.641Z,19.10
2023-01-27T14:05:35.061Z,19.20
2023-01-27T14:08:19.707Z,19.30
2023-01-27T14:11:01.320Z,19.10
2023-01-27T14:13:43.147Z,19.20
2023-01-27T14:16:19.709Z,19.20
2023-01-27T14:18:51.685Z,19.10
2023-01-27T14:21:40.882Z,19.10
2023-01-27T14:24:25.822Z,19.20
2023-01-27T14:27:01.326Z,19.00
2023-01-27T14:29:37.119Z,19.10
2023-01-27T14:32:16.212Z,19.00
2023-01-27T14:35:09.825Z,19.00
2023-01-27T14:37:48.604Z,19.00
2023-01-27T14:40:22.484Z,19.00
2023-01-27T14:43:13.045Z,19.00
2023-01-27T14:45:45.016Z,18.90
2023-01-27T14:48:26.852Z,18.90
2023-01-27T14:51:06.645Z,18.90
2023-01-27T14:53:47.476Z,18.90
2023-01-27T14:56:26.748Z,19.00
2023-01-27T14:59:00.884Z,19.20
2023-01-27T15:01:39.515Z,19.10
2023-01-27T15:04:42.110Z,18.70
2023-01-27T15:07:19.315Z,18.50
2023-01-27T15:10:01.096Z,18.80
2023-01-27T15:12:51.741Z,18.70
2023-01-27T15:15:42.773Z,18.80
2023-01-27T15:21:22.937Z,18.80
2023-01-27T15:26:32.491Z,18.70
2023-01-27T15:31:31.488Z,18.60
2023-01-27T15:34:17.205Z,18.40
2023-01-27T15:37:02.786Z,18.70
2023-01-27T15:39:41.009Z,18.40
2023-01-27T15:42:12.793Z,18.30
2023-01-27T15:44:59.012Z,18.50
2023-01-27T15:47:29.835Z,18.40
2023-01-27T15:50:14.113Z,18.40
2023-01-27T15:52:44.333Z,18.40
2023-01-27T15:55:26.452Z,18.50
2023-01-27T15:58:04.547Z,18.60
2023-01-27T16:00:37.816Z,18.20
2023-01-27T16:03:07.838Z,18.40
2023-01-27T16:05:39.143Z,18.50
2023-01-27T16:08:13.531Z,18.30
2023-01-27T16:10:42.269Z,18.30
2023-01-27T16:13:22.308Z,18.40
2023-01-27T16:16:11.531Z,18.40
2023-01-27T16:18:45.737Z,18.40
2023-01-27T16:21:38.368Z,18.60
2023-01-27T16:24:14.969Z,18.40
2023-01-27T16:26:47.602Z,18.40
2023-01-27T16:29:35.378Z,18.30
2023-01-27T16:32:07.610Z,18.20
2023-01-27T16:34:41.215Z,18.60
2023-01-27T16:37:25.696Z,18.40
2023-01-27T16:40:00.590Z,18.50
2023-01-27T16:42:32.692Z,18.50
2023-01-27T16:45:03.439Z,18.20
2023-01-27T16:47:42.321Z,18.40
2023-01-27T16:50:34.038Z,18.30
2023-01-27T16:53:03.833Z,18.50
2023-01-27T16:55:32.266Z,18.30
2023-01-27T16:58:01.688Z,18.40
2023-01-27T17:00:33.017Z,18.30
2023-01-27T17:03:06.485Z,18.40
2023-01-27T17:05:34.793Z,18.10
2023-01-27T17:08:04.952Z,18.40
2023-01-27T17:13:03.577Z,18.60
2023-01-27T17:15:36.557Z,18.40
2023-01-27T17:20:42.261Z,18.30
2023-01-27T17:23:22.358Z,18.60
2023-01-27T17:25:50.413Z,18.40
2023-01-27T17:28:23.083Z,18.60
2023-01-27T17:33:22.981Z,18.30
2023-01-27T17:35:53.306Z,18.40
2023-01-27T17:38:24.209Z,18.40
2023-01-27T17:40:54.788Z,19.00
2023-01-27T17:43:29.333Z,18.50
2023-01-27T17:46:14.926Z,18.60
2023-01-27T17:48:50.345Z,18.30
2023-01-27T17:51:22.760Z,18.50
2023-01-27T17:53:52.220Z,18.50
2023-01-27T17:56:23.690Z,18.40
2023-01-27T18:01:22.278Z,18.40
2023-01-27T18:03:55.327Z,18.30
2023-01-27T18:06:27.813Z,18.50
2023-01-27T18:08:59.148Z,18.20
2023-01-27T18:11:33.832Z,18.30
2023-01-27T18:14:08.513Z,18.30
2023-01-27T18:16:37.454Z,18.10
2023-01-27T18:19:20.651Z,18.20
2023-01-27T18:21:49.024Z,17.90
2023-01-27T18:24:21.201Z,18.30
2023-01-27T18:26:50.970Z,18.40
2023-01-27T18:29:25.159Z,18.10
2023-01-27T18:31:55.667Z,18.20
2023-01-27T18:34:29.327Z,18.20
2023-01-27T18:36:59.720Z,18.40
2023-01-27T18:39:35.955Z,18.00
2023-01-27T18:42:11.337Z,18.20
2023-01-27T18:47:26.299Z,18.50
2023-01-27T18:50:00.532Z,18.40
2023-01-27T18:55:03.016Z,18.20
2023-01-27T18:57:31.101Z,18.20
2023-01-27T19:04:57.672Z,18.30
2023-01-27T19:07:25.765Z,18.00
2023-01-27T19:17:24.097Z,18.40
2023-01-27T19:24:50.600Z,18.30
2023-01-27T19:27:20.239Z,18.30
2023-01-27T19:29:48.455Z,17.80
2023-01-27T19:34:44.978Z,18.00
2023-01-27T19:37:18.494Z,18.20
2023-01-27T19:39:49.112Z,18.00
2023-01-27T19:47:15.154Z,18.00
2023-01-27T19:57:17.017Z,18.40
2023-01-27T20:02:14.454Z,18.30
2023-01-27T20:04:42.636Z,18.20
2023-01-27T20:07:13.189Z,18.00
2023-01-27T20:12:16.285Z,18.30
2023-01-27T20:14:44.474Z,18.30
2023-01-27T20:17:12.553Z,18.10
2023-01-27T20:22:11.597Z,18.60
2023-01-27T20:27:08.078Z,18.00
2023-01-27T20:29:37.568Z,18.30
2023-01-27T20:37:06.696Z,18.40
2023-01-27T20:47:01.647Z,18.10
2023-01-27T21:04:21.909Z,18.10
2023-01-27T21:21:42.711Z,18.30
2023-01-27T21:39:02.816Z,17.70
2023-01-27T21:44:36.732Z,17.70
2023-01-27T21:49:56.396Z,17.90
2023-01-27T21:54:54.579Z,17.90
2023-01-27T22:07:18.867Z,17.20
2023-01-27T22:12:18.208Z,17.70
2023-01-27T22:22:14.006Z,17.30
2023-01-27T22:29:40.521Z,17.30
2023-01-27T22:47:00.441Z,17.00
2023-01-27T23:04:20.856Z,16.90
2023-01-27T23:21:40.992Z,16.90
2023-01-27T23:36:51.226Z,16.40
2023-01-27T23:39:19.468Z,16.50
2023-01-27T23:54:11.348Z,16.50
